Terminal Aerodrome Forecast
Issued by NWS

Home | Current Version | Previous Version | Text Only | Print | Product List | Glossary On
Versions: 1 2 3 4 5 6 7 8 9 10 11 12 13 14 15
000
FTUS43 KFGF 012338
TAFBJI
TAF
KBJI 012338Z 0200/0224 17015KT P6SM SCT090 BKN250
     FM020600 15008KT P6SM BKN080
     FM021500 16012G20KT P6SM OVC050
     FM022000 16012G20KT P6SM BKN030=

USA.gov is the U.S. government's official web portal to all federal, state and local government web resources and services.